sensor_id;sensor_type;location;lat;lon;timestamp;temperature;humidity
29353;DHT22;16344;50.364;8.944;2023-08-24T00:01:10;23.00;1.00
29353;DHT22;16344;50.364;8.944;2023-08-24T00:03:38;22.80;1.00
29353;DHT22;16344;50.364;8.944;2023-08-24T00:06:03;22.90;1.00
29353;DHT22;16344;50.364;8.944;2023-08-24T00:08:29;22.90;1.00
29353;DHT22;16344;50.364;8.944;2023-08-24T00:10:54;22.90;1.00
29353;DHT22;16344;50.364;8.944;2023-08-24T00:13:20;22.90;1.00
29353;DHT22;16344;50.364;8.944;2023-08-24T00:15:46;22.70;1.00
29353;DHT22;16344;50.364;8.944;2023-08-24T00:18:11;22.70;1.00
29353;DHT22;16344;50.364;8.944;2023-08-24T00:20:37;22.40;1.00
29353;DHT22;16344;50.364;8.944;2023-08-24T00:23:03;22.30;1.00
29353;DHT22;16344;50.364;8.944;2023-08-24T00:25:29;22.10;1.00
29353;DHT22;16344;50.364;8.944;2023-08-24T00:27:55;22.10;1.00
29353;DHT22;16344;50.364;8.944;2023-08-24T00:30:21;22.20;1.00
29353;DHT22;16344;50.364;8.944;2023-08-24T00:32:47;22.20;1.00
29353;DHT22;16344;50.364;8.944;2023-08-24T00:35:12;22.20;1.00
29353;DHT22;16344;50.364;8.944;2023-08-24T00:37:39;22.20;1.00
29353;DHT22;16344;50.364;8.944;2023-08-24T00:40:06;22.10;1.00
29353;DHT22;16344;50.364;8.944;2023-08-24T00:42:42;22.10;1.00
29353;DHT22;16344;50.364;8.944;2023-08-24T00:45:13;22.00;1.00
29353;DHT22;16344;50.364;8.944;2023-08-24T00:47:48;21.80;1.00
29353;DHT22;16344;50.364;8.944;2023-08-24T00:50:16;21.70;1.00
29353;DHT22;16344;50.364;8.944;2023-08-24T00:52:42;21.50;1.00
29353;DHT22;16344;50.364;8.944;2023-08-24T00:55:09;21.50;1.00
29353;DHT22;16344;50.364;8.944;2023-08-24T00:57:38;21.40;1.00
29353;DHT22;16344;50.364;8.944;2023-08-24T01:00:06;21.40;1.00
29353;DHT22;16344;50.364;8.944;2023-08-24T01:02:34;21.60;1.00
29353;DHT22;16344;50.364;8.944;2023-08-24T01:04:59;21.70;1.00
29353;DHT22;16344;50.364;8.944;2023-08-24T01:07:25;21.60;1.00
29353;DHT22;16344;50.364;8.944;2023-08-24T01:09:51;21.60;1.00
29353;DHT22;16344;50.364;8.944;2023-08-24T01:12:46;21.60;1.00
29353;DHT22;16344;50.364;8.944;2023-08-24T01:17:56;21.60;1.00
29353;DHT22;16344;50.364;8.944;2023-08-24T01:20:23;21.40;1.00
29353;DHT22;16344;50.364;8.944;2023-08-24T01:22:58;21.60;1.00
29353;DHT22;16344;50.364;8.944;2023-08-24T01:25:38;21.80;1.00
29353;DHT22;16344;50.364;8.944;2023-08-24T01:28:06;21.70;1.00
29353;DHT22;16344;50.364;8.944;2023-08-24T01:30:33;21.60;1.00
29353;DHT22;16344;50.364;8.944;2023-08-24T01:33:02;21.60;1.00
29353;DHT22;16344;50.364;8.944;2023-08-24T01:35:28;21.70;1.00
29353;DHT22;16344;50.364;8.944;2023-08-24T01:37:54;21.60;1.00
29353;DHT22;16344;50.364;8.944;2023-08-24T01:40:36;21.30;1.00
29353;DHT22;16344;50.364;8.944;2023-08-24T01:43:06;21.20;1.00
29353;DHT22;16344;50.364;8.944;2023-08-24T01:45:33;21.10;1.00
29353;DHT22;16344;50.364;8.944;2023-08-24T01:48:03;21.10;1.00
29353;DHT22;16344;50.364;8.944;2023-08-24T01:50:30;21.00;1.00
29353;DHT22;16344;50.364;8.944;2023-08-24T01:52:56;21.00;1.00
29353;DHT22;16344;50.364;8.944;2023-08-24T01:55:23;21.10;1.00
29353;DHT22;16344;50.364;8.944;2023-08-24T01:57:49;21.00;1.00
29353;DHT22;16344;50.364;8.944;2023-08-24T02:00:15;21.00;1.00
29353;DHT22;16344;50.364;8.944;2023-08-24T02:02:42;20.90;1.00
29353;DHT22;16344;50.364;8.944;2023-08-24T02:05:08;21.00;1.00
29353;DHT22;16344;50.364;8.944;2023-08-24T02:07:33;20.90;1.00
29353;DHT22;16344;50.364;8.944;2023-08-24T02:09:59;20.90;1.80
29353;DHT22;16344;50.364;8.944;2023-08-24T02:12:24;20.80;13.80
29353;DHT22;16344;50.364;8.944;2023-08-24T02:14:50;20.80;10.80
29353;DHT22;16344;50.364;8.944;2023-08-24T02:17:15;20.70;17.90
29353;DHT22;16344;50.364;8.944;2023-08-24T02:19:41;20.80;1.00
29353;DHT22;16344;50.364;8.944;2023-08-24T02:22:07;20.80;1.00
29353;DHT22;16344;50.364;8.944;2023-08-24T02:24:33;20.80;1.00
29353;DHT22;16344;50.364;8.944;2023-08-24T02:26:59;20.70;2.70
29353;DHT22;16344;50.364;8.944;2023-08-24T02:29:24;20.70;12.30
29353;DHT22;16344;50.364;8.944;2023-08-24T02:31:50;20.70;1.00
29353;DHT22;16344;50.364;8.944;2023-08-24T02:34:16;20.70;7.80
29353;DHT22;16344;50.364;8.944;2023-08-24T02:36:42;20.70;6.20
29353;DHT22;16344;50.364;8.944;2023-08-24T02:39:07;20.90;1.00
29353;DHT22;16344;50.364;8.944;2023-08-24T02:41:34;20.80;10.90
29353;DHT22;16344;50.364;8.944;2023-08-24T02:44:00;20.80;22.50
29353;DHT22;16344;50.364;8.944;2023-08-24T02:46:26;20.70;14.10
29353;DHT22;16344;50.364;8.944;2023-08-24T02:48:51;20.80;10.30
29353;DHT22;16344;50.364;8.944;2023-08-24T02:51:17;20.70;11.90
29353;DHT22;16344;50.364;8.944;2023-08-24T02:53:42;20.60;24.30
29353;DHT22;16344;50.364;8.944;2023-08-24T02:56:08;20.50;36.50
29353;DHT22;16344;50.364;8.944;2023-08-24T02:58:34;20.50;31.40
29353;DHT22;16344;50.364;8.944;2023-08-24T03:01:07;20.50;24.40
29353;DHT22;16344;50.364;8.944;2023-08-24T03:03:36;20.50;30.60
29353;DHT22;16344;50.364;8.944;2023-08-24T03:06:07;20.50;29.80
29353;DHT22;16344;50.364;8.944;2023-08-24T03:08:33;20.50;32.00
29353;DHT22;16344;50.364;8.944;2023-08-24T03:11:00;20.50;30.90
29353;DHT22;16344;50.364;8.944;2023-08-24T03:13:27;20.50;51.60
29353;DHT22;16344;50.364;8.944;2023-08-24T03:15:53;20.40;60.40
29353;DHT22;16344;50.364;8.944;2023-08-24T03:18:19;20.40;63.80
29353;DHT22;16344;50.364;8.944;2023-08-24T03:20:45;20.50;52.80
29353;DHT22;16344;50.364;8.944;2023-08-24T03:23:11;20.30;90.60
29353;DHT22;16344;50.364;8.944;2023-08-24T03:25:38;20.20;96.40
29353;DHT22;16344;50.364;8.944;2023-08-24T03:28:04;20.30;91.50
29353;DHT22;16344;50.364;8.944;2023-08-24T03:30:30;20.40;82.20
29353;DHT22;16344;50.364;8.944;2023-08-24T03:32:56;20.30;92.60
29353;DHT22;16344;50.364;8.944;2023-08-24T03:35:22;20.40;91.20
29353;DHT22;16344;50.364;8.944;2023-08-24T03:37:47;20.50;39.70
29353;DHT22;16344;50.364;8.944;2023-08-24T03:40:13;20.60;44.70
29353;DHT22;16344;50.364;8.944;2023-08-24T03:42:38;20.40;86.50
29353;DHT22;16344;50.364;8.944;2023-08-24T03:45:05;20.40;94.40
29353;DHT22;16344;50.364;8.944;2023-08-24T03:47:30;20.50;90.40
29353;DHT22;16344;50.364;8.944;2023-08-24T03:49:56;20.50;86.10
29353;DHT22;16344;50.364;8.944;2023-08-24T03:52:22;20.60;59.10
29353;DHT22;16344;50.364;8.944;2023-08-24T03:54:47;20.50;73.60
29353;DHT22;16344;50.364;8.944;2023-08-24T03:57:13;20.40;94.80
29353;DHT22;16344;50.364;8.944;2023-08-24T03:59:39;20.30;99.90
29353;DHT22;16344;50.364;8.944;2023-08-24T04:02:04;20.40;99.90
29353;DHT22;16344;50.364;8.944;2023-08-24T04:04:30;20.40;99.10
29353;DHT22;16344;50.364;8.944;2023-08-24T04:06:56;20.40;89.30
29353;DHT22;16344;50.364;8.944;2023-08-24T04:09:21;20.50;95.60
29353;DHT22;16344;50.364;8.944;2023-08-24T04:11:47;20.60;72.30
29353;DHT22;16344;50.364;8.944;2023-08-24T04:14:12;20.60;30.90
29353;DHT22;16344;50.364;8.944;2023-08-24T04:16:39;20.70;8.60
29353;DHT22;16344;50.364;8.944;2023-08-24T04:19:04;20.70;21.10
29353;DHT22;16344;50.364;8.944;2023-08-24T04:21:30;20.80;8.10
29353;DHT22;16344;50.364;8.944;2023-08-24T04:23:56;20.70;6.20
29353;DHT22;16344;50.364;8.944;2023-08-24T04:26:21;20.70;4.90
29353;DHT22;16344;50.364;8.944;2023-08-24T04:28:47;20.80;4.90
29353;DHT22;16344;50.364;8.944;2023-08-24T04:31:12;20.80;22.50
29353;DHT22;16344;50.364;8.944;2023-08-24T04:33:38;20.80;11.10
29353;DHT22;16344;50.364;8.944;2023-08-24T04:36:03;20.90;1.00
29353;DHT22;16344;50.364;8.944;2023-08-24T04:38:29;21.00;1.00
29353;DHT22;16344;50.364;8.944;2023-08-24T04:40:55;20.90;1.00
29353;DHT22;16344;50.364;8.944;2023-08-24T04:43:22;20.90;1.00
29353;DHT22;16344;50.364;8.944;2023-08-24T04:45:50;21.10;1.00
29353;DHT22;16344;50.364;8.944;2023-08-24T04:48:22;21.10;1.00
29353;DHT22;16344;50.364;8.944;2023-08-24T04:50:49;21.10;1.00
29353;DHT22;16344;50.364;8.944;2023-08-24T04:53:19;21.10;1.00
29353;DHT22;16344;50.364;8.944;2023-08-24T04:55:45;21.10;1.00
29353;DHT22;16344;50.364;8.944;2023-08-24T04:58:11;21.20;1.00
29353;DHT22;16344;50.364;8.944;2023-08-24T05:00:38;21.10;1.00
29353;DHT22;16344;50.364;8.944;2023-08-24T05:03:07;21.00;1.00
29353;DHT22;16344;50.364;8.944;2023-08-24T05:05:33;21.00;1.00
29353;DHT22;16344;50.364;8.944;2023-08-24T05:08:00;21.10;1.00
29353;DHT22;16344;50.364;8.944;2023-08-24T05:10:30;21.10;1.00
29353;DHT22;16344;50.364;8.944;2023-08-24T05:12:55;21.20;1.00
29353;DHT22;16344;50.364;8.944;2023-08-24T05:15:21;21.30;1.00
29353;DHT22;16344;50.364;8.944;2023-08-24T05:17:47;21.40;1.00
29353;DHT22;16344;50.364;8.944;2023-08-24T05:20:12;21.40;1.00
29353;DHT22;16344;50.364;8.944;2023-08-24T05:22:38;21.10;43.90
29353;DHT22;16344;50.364;8.944;2023-08-24T05:25:04;20.70;99.90
29353;DHT22;16344;50.364;8.944;2023-08-24T05:27:30;20.30;99.90
29353;DHT22;16344;50.364;8.944;2023-08-24T05:29:56;19.90;99.90
29353;DHT22;16344;50.364;8.944;2023-08-24T05:32:21;19.50;99.90
29353;DHT22;16344;50.364;8.944;2023-08-24T05:34:47;19.30;99.90
29353;DHT22;16344;50.364;8.944;2023-08-24T05:37:13;19.30;99.90
29353;DHT22;16344;50.364;8.944;2023-08-24T05:39:38;19.30;99.90
29353;DHT22;16344;50.364;8.944;2023-08-24T05:42:05;19.30;99.90
29353;DHT22;16344;50.364;8.944;2023-08-24T05:44:30;19.30;99.90
29353;DHT22;16344;50.364;8.944;2023-08-24T05:46:57;19.50;99.90
29353;DHT22;16344;50.364;8.944;2023-08-24T05:49:22;19.60;99.90
29353;DHT22;16344;50.364;8.944;2023-08-24T05:51:50;19.80;99.90
29353;DHT22;16344;50.364;8.944;2023-08-24T05:54:16;20.00;99.90
29353;DHT22;16344;50.364;8.944;2023-08-24T05:56:44;20.20;99.90
29353;DHT22;16344;50.364;8.944;2023-08-24T05:59:10;20.30;99.90
29353;DHT22;16344;50.364;8.944;2023-08-24T06:01:35;20.60;99.90
29353;DHT22;16344;50.364;8.944;2023-08-24T06:04:04;21.00;99.90
29353;DHT22;16344;50.364;8.944;2023-08-24T06:06:30;21.50;99.90
29353;DHT22;16344;50.364;8.944;2023-08-24T06:08:55;21.80;99.90
29353;DHT22;16344;50.364;8.944;2023-08-24T06:11:21;21.90;99.90
29353;DHT22;16344;50.364;8.944;2023-08-24T06:13:46;21.90;60.30
29353;DHT22;16344;50.364;8.944;2023-08-24T06:16:12;21.90;72.40
29353;DHT22;16344;50.364;8.944;2023-08-24T06:18:37;22.40;79.40
29353;DHT22;16344;50.364;8.944;2023-08-24T06:21:03;22.90;17.40
29353;DHT22;16344;50.364;8.944;2023-08-24T06:23:28;23.10;1.00
29353;DHT22;16344;50.364;8.944;2023-08-24T06:25:54;23.30;1.00
29353;DHT22;16344;50.364;8.944;2023-08-24T06:28:19;23.30;8.60
29353;DHT22;16344;50.364;8.944;2023-08-24T06:30:45;23.20;25.00
29353;DHT22;16344;50.364;8.944;2023-08-24T06:33:11;23.10;68.10
29353;DHT22;16344;50.364;8.944;2023-08-24T06:35:37;22.80;99.90
29353;DHT22;16344;50.364;8.944;2023-08-24T06:38:03;22.60;99.90
29353;DHT22;16344;50.364;8.944;2023-08-24T06:40:29;22.30;99.90
29353;DHT22;16344;50.364;8.944;2023-08-24T06:42:55;22.10;99.90
29353;DHT22;16344;50.364;8.944;2023-08-24T06:45:21;21.90;99.90
29353;DHT22;16344;50.364;8.944;2023-08-24T06:47:47;21.30;99.90
29353;DHT22;16344;50.364;8.944;2023-08-24T06:50:12;20.80;99.90
29353;DHT22;16344;50.364;8.944;2023-08-24T06:52:38;20.40;99.90
29353;DHT22;16344;50.364;8.944;2023-08-24T06:55:04;19.90;1.00
29353;DHT22;16344;50.364;8.944;2023-08-24T06:57:30;19.70;1.00
29353;DHT22;16344;50.364;8.944;2023-08-24T06:59:56;19.80;1.00
29353;DHT22;16344;50.364;8.944;2023-08-24T07:02:21;19.90;1.00
29353;DHT22;16344;50.364;8.944;2023-08-24T07:04:48;20.10;1.00
29353;DHT22;16344;50.364;8.944;2023-08-24T07:07:13;20.20;1.00
29353;DHT22;16344;50.364;8.944;2023-08-24T07:09:39;20.40;99.90
29353;DHT22;16344;50.364;8.944;2023-08-24T07:12:04;20.60;99.90
29353;DHT22;16344;50.364;8.944;2023-08-24T07:14:33;20.70;1.00
29353;DHT22;16344;50.364;8.944;2023-08-24T07:16:58;20.80;99.90
29353;DHT22;16344;50.364;8.944;2023-08-24T07:19:24;20.90;99.90
29353;DHT22;16344;50.364;8.944;2023-08-24T07:21:50;20.90;99.90
29353;DHT22;16344;50.364;8.944;2023-08-24T07:24:16;20.90;1.00
29353;DHT22;16344;50.364;8.944;2023-08-24T07:26:44;21.00;99.90
29353;DHT22;16344;50.364;8.944;2023-08-24T07:29:10;20.90;99.90
29353;DHT22;16344;50.364;8.944;2023-08-24T07:31:36;20.90;99.90
29353;DHT22;16344;50.364;8.944;2023-08-24T07:34:02;21.00;99.90
29353;DHT22;16344;50.364;8.944;2023-08-24T07:36:29;20.90;99.90
29353;DHT22;16344;50.364;8.944;2023-08-24T07:38:54;20.70;99.90
29353;DHT22;16344;50.364;8.944;2023-08-24T07:41:20;20.60;99.90
29353;DHT22;16344;50.364;8.944;2023-08-24T07:43:45;20.80;99.90
29353;DHT22;16344;50.364;8.944;2023-08-24T07:46:11;21.10;99.90
29353;DHT22;16344;50.364;8.944;2023-08-24T07:48:36;21.50;99.90
29353;DHT22;16344;50.364;8.944;2023-08-24T07:51:02;22.00;99.90
29353;DHT22;16344;50.364;8.944;2023-08-24T07:53:28;22.30;99.90
29353;DHT22;16344;50.364;8.944;2023-08-24T07:55:54;22.50;99.90
29353;DHT22;16344;50.364;8.944;2023-08-24T07:58:23;22.60;99.90
29353;DHT22;16344;50.364;8.944;2023-08-24T08:00:50;22.70;99.90
29353;DHT22;16344;50.364;8.944;2023-08-24T08:03:17;22.70;96.70
29353;DHT22;16344;50.364;8.944;2023-08-24T08:05:43;22.60;96.60
29353;DHT22;16344;50.364;8.944;2023-08-24T08:08:08;22.70;99.90
29353;DHT22;16344;50.364;8.944;2023-08-24T08:10:34;23.00;99.90
29353;DHT22;16344;50.364;8.944;2023-08-24T08:12:59;23.10;15.80
29353;DHT22;16344;50.364;8.944;2023-08-24T08:15:25;23.10;58.90
29353;DHT22;16344;50.364;8.944;2023-08-24T08:17:51;23.00;75.10
29353;DHT22;16344;50.364;8.944;2023-08-24T08:20:16;23.10;99.90
29353;DHT22;16344;50.364;8.944;2023-08-24T08:22:42;23.30;96.80
29353;DHT22;16344;50.364;8.944;2023-08-24T08:25:07;23.40;90.20
29353;DHT22;16344;50.364;8.944;2023-08-24T08:27:33;23.70;66.20
29353;DHT22;16344;50.364;8.944;2023-08-24T08:29:59;23.80;29.70
29353;DHT22;16344;50.364;8.944;2023-08-24T08:32:24;23.90;81.00
29353;DHT22;16344;50.364;8.944;2023-08-24T08:34:53;23.90;19.60
29353;DHT22;16344;50.364;8.944;2023-08-24T08:37:19;23.80;44.20
29353;DHT22;16344;50.364;8.944;2023-08-24T08:39:44;23.80;99.90
29353;DHT22;16344;50.364;8.944;2023-08-24T08:42:14;23.90;91.50
29353;DHT22;16344;50.364;8.944;2023-08-24T08:44:41;24.00;59.40
29353;DHT22;16344;50.364;8.944;2023-08-24T08:47:09;23.60;99.90
29353;DHT22;16344;50.364;8.944;2023-08-24T08:49:36;23.70;99.90
29353;DHT22;16344;50.364;8.944;2023-08-24T08:52:02;23.80;71.10
29353;DHT22;16344;50.364;8.944;2023-08-24T08:54:29;23.90;53.90
29353;DHT22;16344;50.364;8.944;2023-08-24T08:56:54;24.10;10.70
29353;DHT22;16344;50.364;8.944;2023-08-24T08:59:21;24.40;21.50
29353;DHT22;16344;50.364;8.944;2023-08-24T09:01:48;24.70;1.00
29353;DHT22;16344;50.364;8.944;2023-08-24T09:04:16;24.90;1.00
29353;DHT22;16344;50.364;8.944;2023-08-24T09:06:42;25.30;1.00
29353;DHT22;16344;50.364;8.944;2023-08-24T09:09:07;25.70;1.00
29353;DHT22;16344;50.364;8.944;2023-08-24T09:11:33;26.10;1.00
29353;DHT22;16344;50.364;8.944;2023-08-24T09:13:59;26.20;1.00
29353;DHT22;16344;50.364;8.944;2023-08-24T09:16:29;26.20;1.00
29353;DHT22;16344;50.364;8.944;2023-08-24T09:18:54;26.30;1.00
29353;DHT22;16344;50.364;8.944;2023-08-24T09:21:20;26.40;1.00
29353;DHT22;16344;50.364;8.944;2023-08-24T09:23:52;26.60;1.00
29353;DHT22;16344;50.364;8.944;2023-08-24T09:26:30;26.90;1.00
29353;DHT22;16344;50.364;8.944;2023-08-24T09:28:57;27.10;1.00
29353;DHT22;16344;50.364;8.944;2023-08-24T09:31:24;27.00;1.00
29353;DHT22;16344;50.364;8.944;2023-08-24T09:34:00;27.00;1.00
29353;DHT22;16344;50.364;8.944;2023-08-24T09:36:26;26.80;1.00
29353;DHT22;16344;50.364;8.944;2023-08-24T09:38:51;26.50;1.00
29353;DHT22;16344;50.364;8.944;2023-08-24T09:41:17;26.70;1.00
29353;DHT22;16344;50.364;8.944;2023-08-24T09:43:43;26.70;1.00
29353;DHT22;16344;50.364;8.944;2023-08-24T09:46:09;26.70;1.00
29353;DHT22;16344;50.364;8.944;2023-08-24T09:48:34;26.50;1.00
29353;DHT22;16344;50.364;8.944;2023-08-24T09:51:03;26.70;1.00
29353;DHT22;16344;50.364;8.944;2023-08-24T09:53:32;26.60;1.00
29353;DHT22;16344;50.364;8.944;2023-08-24T09:58:24;26.50;1.00
29353;DHT22;16344;50.364;8.944;2023-08-24T10:00:50;26.50;1.00
29353;DHT22;16344;50.364;8.944;2023-08-24T10:03:21;26.40;1.00
29353;DHT22;16344;50.364;8.944;2023-08-24T10:05:51;26.60;1.00
29353;DHT22;16344;50.364;8.944;2023-08-24T10:08:33;27.00;1.00
29353;DHT22;16344;50.364;8.944;2023-08-24T10:11:00;27.10;1.00
29353;DHT22;16344;50.364;8.944;2023-08-24T10:13:49;27.30;1.00
29353;DHT22;16344;50.364;8.944;2023-08-24T10:16:16;27.50;1.00
29353;DHT22;16344;50.364;8.944;2023-08-24T10:18:43;27.20;1.00
29353;DHT22;16344;50.364;8.944;2023-08-24T10:21:09;26.90;1.00
29353;DHT22;16344;50.364;8.944;2023-08-24T10:23:37;27.00;1.00
29353;DHT22;16344;50.364;8.944;2023-08-24T10:26:03;27.10;1.00
29353;DHT22;16344;50.364;8.944;2023-08-24T10:28:29;27.30;1.00
29353;DHT22;16344;50.364;8.944;2023-08-24T10:30:58;27.40;1.00
29353;DHT22;16344;50.364;8.944;2023-08-24T10:33:25;27.30;1.00
29353;DHT22;16344;50.364;8.944;2023-08-24T10:35:52;27.30;1.00
29353;DHT22;16344;50.364;8.944;2023-08-24T10:38:23;27.20;1.00
29353;DHT22;16344;50.364;8.944;2023-08-24T10:40:51;27.30;1.00
29353;DHT22;16344;50.364;8.944;2023-08-24T10:43:16;27.30;1.00
29353;DHT22;16344;50.364;8.944;2023-08-24T10:46:01;27.50;1.00
29353;DHT22;16344;50.364;8.944;2023-08-24T10:48:31;27.80;1.00
29353;DHT22;16344;50.364;8.944;2023-08-24T10:53:44;28.30;1.00
29353;DHT22;16344;50.364;8.944;2023-08-24T10:56:11;28.20;1.00
29353;DHT22;16344;50.364;8.944;2023-08-24T10:58:38;28.00;1.00
29353;DHT22;16344;50.364;8.944;2023-08-24T11:01:03;27.90;1.00
29353;DHT22;16344;50.364;8.944;2023-08-24T11:03:32;27.80;1.00
29353;DHT22;16344;50.364;8.944;2023-08-24T11:05:58;27.60;1.00
29353;DHT22;16344;50.364;8.944;2023-08-24T11:08:49;27.60;1.00
29353;DHT22;16344;50.364;8.944;2023-08-24T11:11:22;27.70;1.00
29353;DHT22;16344;50.364;8.944;2023-08-24T11:14:14;27.80;1.00
29353;DHT22;16344;50.364;8.944;2023-08-24T11:16:45;27.90;1.00
29353;DHT22;16344;50.364;8.944;2023-08-24T11:19:12;28.00;1.00
29353;DHT22;16344;50.364;8.944;2023-08-24T11:21:42;28.20;1.00
29353;DHT22;16344;50.364;8.944;2023-08-24T11:24:17;28.20;1.00
29353;DHT22;16344;50.364;8.944;2023-08-24T11:26:48;28.30;1.00
29353;DHT22;16344;50.364;8.944;2023-08-24T11:29:14;28.30;1.00
29353;DHT22;16344;50.364;8.944;2023-08-24T11:31:41;28.50;1.00
29353;DHT22;16344;50.364;8.944;2023-08-24T11:34:06;28.60;1.00
29353;DHT22;16344;50.364;8.944;2023-08-24T11:36:43;28.50;1.00
29353;DHT22;16344;50.364;8.944;2023-08-24T11:39:14;28.80;1.00
29353;DHT22;16344;50.364;8.944;2023-08-24T11:41:39;28.90;1.00
29353;DHT22;16344;50.364;8.944;2023-08-24T11:44:05;28.90;1.00
29353;DHT22;16344;50.364;8.944;2023-08-24T11:46:31;29.00;1.00
29353;DHT22;16344;50.364;8.944;2023-08-24T11:48:58;29.20;1.00
29353;DHT22;16344;50.364;8.944;2023-08-24T11:51:24;29.10;1.00
29353;DHT22;16344;50.364;8.944;2023-08-24T11:53:50;29.00;1.00
29353;DHT22;16344;50.364;8.944;2023-08-24T11:56:16;28.70;1.00
29353;DHT22;16344;50.364;8.944;2023-08-24T11:58:49;28.60;1.00
29353;DHT22;16344;50.364;8.944;2023-08-24T12:01:16;28.80;1.00
29353;DHT22;16344;50.364;8.944;2023-08-24T12:03:42;28.90;1.00
29353;DHT22;16344;50.364;8.944;2023-08-24T12:06:13;28.60;1.00
29353;DHT22;16344;50.364;8.944;2023-08-24T12:08:44;28.60;1.00
29353;DHT22;16344;50.364;8.944;2023-08-24T12:11:17;28.60;1.00
29353;DHT22;16344;50.364;8.944;2023-08-24T12:13:54;28.50;1.00
29353;DHT22;16344;50.364;8.944;2023-08-24T12:16:21;28.50;1.00
29353;DHT22;16344;50.364;8.944;2023-08-24T12:18:55;28.70;1.00
29353;DHT22;16344;50.364;8.944;2023-08-24T12:21:22;28.80;1.00
29353;DHT22;16344;50.364;8.944;2023-08-24T12:26:27;28.50;1.00
29353;DHT22;16344;50.364;8.944;2023-08-24T12:28:53;28.60;1.00
29353;DHT22;16344;50.364;8.944;2023-08-24T12:31:19;28.90;1.00
29353;DHT22;16344;50.364;8.944;2023-08-24T12:33:45;28.90;1.00
29353;DHT22;16344;50.364;8.944;2023-08-24T12:36:11;28.80;1.00
29353;DHT22;16344;50.364;8.944;2023-08-24T12:38:37;28.60;1.00
29353;DHT22;16344;50.364;8.944;2023-08-24T12:41:04;28.70;1.00
29353;DHT22;16344;50.364;8.944;2023-08-24T12:43:29;28.60;1.00
29353;DHT22;16344;50.364;8.944;2023-08-24T12:45:55;28.50;1.00
29353;DHT22;16344;50.364;8.944;2023-08-24T12:48:20;28.50;1.00
29353;DHT22;16344;50.364;8.944;2023-08-24T12:50:46;28.70;1.00
29353;DHT22;16344;50.364;8.944;2023-08-24T12:53:11;29.00;1.00
29353;DHT22;16344;50.364;8.944;2023-08-24T12:55:39;29.00;1.00
29353;DHT22;16344;50.364;8.944;2023-08-24T12:58:05;28.70;1.00
29353;DHT22;16344;50.364;8.944;2023-08-24T13:00:31;28.50;1.00
29353;DHT22;16344;50.364;8.944;2023-08-24T13:02:56;28.60;1.00
29353;DHT22;16344;50.364;8.944;2023-08-24T13:05:22;28.60;1.00
29353;DHT22;16344;50.364;8.944;2023-08-24T13:07:48;28.60;1.00
29353;DHT22;16344;50.364;8.944;2023-08-24T13:10:13;28.60;1.00
29353;DHT22;16344;50.364;8.944;2023-08-24T13:12:39;28.70;1.00
29353;DHT22;16344;50.364;8.944;2023-08-24T13:15:05;28.80;1.00
29353;DHT22;16344;50.364;8.944;2023-08-24T13:17:31;28.90;1.00
29353;DHT22;16344;50.364;8.944;2023-08-24T13:19:56;28.80;99.90
29353;DHT22;16344;50.364;8.944;2023-08-24T13:22:22;28.70;1.00
29353;DHT22;16344;50.364;8.944;2023-08-24T13:24:48;28.70;1.00
29353;DHT22;16344;50.364;8.944;2023-08-24T13:27:13;28.80;1.00
29353;DHT22;16344;50.364;8.944;2023-08-24T13:29:40;28.80;1.00
29353;DHT22;16344;50.364;8.944;2023-08-24T13:32:06;28.70;99.90
29353;DHT22;16344;50.364;8.944;2023-08-24T13:34:32;28.50;1.00
29353;DHT22;16344;50.364;8.944;2023-08-24T13:36:57;28.60;99.90
29353;DHT22;16344;50.364;8.944;2023-08-24T13:39:26;28.80;99.90
29353;DHT22;16344;50.364;8.944;2023-08-24T13:41:56;28.90;99.90
29353;DHT22;16344;50.364;8.944;2023-08-24T13:44:21;28.70;99.90
29353;DHT22;16344;50.364;8.944;2023-08-24T13:46:47;28.80;99.90
29353;DHT22;16344;50.364;8.944;2023-08-24T13:49:12;28.90;99.90
29353;DHT22;16344;50.364;8.944;2023-08-24T13:51:38;29.00;99.90
29353;DHT22;16344;50.364;8.944;2023-08-24T13:54:15;29.20;99.90
29353;DHT22;16344;50.364;8.944;2023-08-24T13:56:45;29.40;99.90
29353;DHT22;16344;50.364;8.944;2023-08-24T13:59:11;29.50;99.90
29353;DHT22;16344;50.364;8.944;2023-08-24T14:01:37;29.60;99.90
29353;DHT22;16344;50.364;8.944;2023-08-24T14:04:03;29.60;99.90
29353;DHT22;16344;50.364;8.944;2023-08-24T14:06:30;29.80;99.90
29353;DHT22;16344;50.364;8.944;2023-08-24T14:08:56;29.70;99.90
29353;DHT22;16344;50.364;8.944;2023-08-24T14:11:22;29.60;1.00
29353;DHT22;16344;50.364;8.944;2023-08-24T14:13:48;29.40;1.00
29353;DHT22;16344;50.364;8.944;2023-08-24T14:16:14;29.30;1.00
29353;DHT22;16344;50.364;8.944;2023-08-24T14:18:39;29.20;1.00
29353;DHT22;16344;50.364;8.944;2023-08-24T14:21:05;29.30;1.00
29353;DHT22;16344;50.364;8.944;2023-08-24T14:26:53;29.50;1.00
29353;DHT22;16344;50.364;8.944;2023-08-24T14:29:18;29.50;1.00
29353;DHT22;16344;50.364;8.944;2023-08-24T14:31:44;29.50;1.00
29353;DHT22;16344;50.364;8.944;2023-08-24T14:34:09;29.50;1.00
29353;DHT22;16344;50.364;8.944;2023-08-24T14:36:35;29.40;1.00
29353;DHT22;16344;50.364;8.944;2023-08-24T14:39:01;29.30;1.00
29353;DHT22;16344;50.364;8.944;2023-08-24T14:41:26;29.20;1.00
29353;DHT22;16344;50.364;8.944;2023-08-24T14:43:52;28.90;1.00
29353;DHT22;16344;50.364;8.944;2023-08-24T14:46:17;28.60;1.00
29353;DHT22;16344;50.364;8.944;2023-08-24T14:48:43;27.80;1.00
29353;DHT22;16344;50.364;8.944;2023-08-24T14:51:08;27.40;1.00
29353;DHT22;16344;50.364;8.944;2023-08-24T14:53:34;27.00;1.00
29353;DHT22;16344;50.364;8.944;2023-08-24T14:56:00;27.00;1.00
29353;DHT22;16344;50.364;8.944;2023-08-24T14:58:26;27.00;1.00
29353;DHT22;16344;50.364;8.944;2023-08-24T15:00:54;27.10;1.00
29353;DHT22;16344;50.364;8.944;2023-08-24T15:03:21;27.20;1.00
29353;DHT22;16344;50.364;8.944;2023-08-24T15:05:57;27.40;1.00
29353;DHT22;16344;50.364;8.944;2023-08-24T15:08:23;27.50;1.00
29353;DHT22;16344;50.364;8.944;2023-08-24T15:10:49;27.70;1.00
29353;DHT22;16344;50.364;8.944;2023-08-24T15:13:14;27.90;1.00
29353;DHT22;16344;50.364;8.944;2023-08-24T15:15:40;28.00;1.00
29353;DHT22;16344;50.364;8.944;2023-08-24T15:18:06;28.20;1.00
29353;DHT22;16344;50.364;8.944;2023-08-24T15:20:31;28.10;1.00
29353;DHT22;16344;50.364;8.944;2023-08-24T15:23:00;28.00;1.00
29353;DHT22;16344;50.364;8.944;2023-08-24T15:25:26;27.90;1.00
29353;DHT22;16344;50.364;8.944;2023-08-24T15:27:51;27.90;1.00
29353;DHT22;16344;50.364;8.944;2023-08-24T15:30:17;28.00;1.00
29353;DHT22;16344;50.364;8.944;2023-08-24T15:32:42;27.90;1.00
29353;DHT22;16344;50.364;8.944;2023-08-24T15:35:08;28.00;1.00
29353;DHT22;16344;50.364;8.944;2023-08-24T15:37:34;28.10;1.00
29353;DHT22;16344;50.364;8.944;2023-08-24T15:40:00;28.20;1.00
29353;DHT22;16344;50.364;8.944;2023-08-24T15:42:26;28.30;1.00
29353;DHT22;16344;50.364;8.944;2023-08-24T15:44:52;28.40;1.00
29353;DHT22;16344;50.364;8.944;2023-08-24T15:47:17;28.30;1.00
29353;DHT22;16344;50.364;8.944;2023-08-24T15:49:43;28.30;1.00
29353;DHT22;16344;50.364;8.944;2023-08-24T15:52:08;28.40;1.00